sensor_id;sensor_type;location;lat;lon;timestamp;pressure;altitude;pressure_sealevel;temperature;humidity
57628;BME280;43451;49.060;10.616;2023-10-13T00:01:54;96866.50;;;12.19;100.00
57628;BME280;43451;49.060;10.616;2023-10-13T00:04:21;96866.06;;;12.24;100.00
57628;BME280;43451;49.060;10.616;2023-10-13T00:06:54;96873.09;;;12.25;100.00
57628;BME280;43451;49.060;10.616;2023-10-13T00:09:22;96867.63;;;12.28;100.00
57628;BME280;43451;49.060;10.616;2023-10-13T00:11:54;96872.28;;;12.28;100.00
57628;BME280;43451;49.060;10.616;2023-10-13T00:14:21;96863.34;;;12.27;100.00
57628;BME280;43451;49.060;10.616;2023-10-13T00:16:47;96866.81;;;12.31;100.00
57628;BME280;43451;49.060;10.616;2023-10-13T00:19:37;96861.72;;;12.34;100.00
57628;BME280;43451;49.060;10.616;2023-10-13T00:22:09;96856.66;;;12.36;100.00
57628;BME280;43451;49.060;10.616;2023-10-13T00:24:40;96856.63;;;12.39;100.00
57628;BME280;43451;49.060;10.616;2023-10-13T00:27:13;96844.59;;;12.37;100.00
57628;BME280;43451;49.060;10.616;2023-10-13T00:30:06;96842.69;;;12.30;100.00
57628;BME280;43451;49.060;10.616;2023-10-13T00:32:52;96842.69;;;12.30;100.00
57628;BME280;43451;49.060;10.616;2023-10-13T00:35:24;96837.66;;;12.28;100.00
57628;BME280;43451;49.060;10.616;2023-10-13T00:38:03;96843.88;;;12.29;100.00
57628;BME280;43451;49.060;10.616;2023-10-13T00:40:43;96835.66;;;12.32;100.00
57628;BME280;43451;49.060;10.616;2023-10-13T00:43:21;96838.75;;;12.38;100.00
57628;BME280;43451;49.060;10.616;2023-10-13T00:45:50;96848.44;;;12.46;100.00
57628;BME280;43451;49.060;10.616;2023-10-13T00:48:30;96838.66;;;12.49;100.00
57628;BME280;43451;49.060;10.616;2023-10-13T00:51:04;96841.75;;;12.54;100.00
57628;BME280;43451;49.060;10.616;2023-10-13T00:53:35;96840.56;;;12.55;100.00
57628;BME280;43451;49.060;10.616;2023-10-13T00:56:09;96831.22;;;12.57;100.00
57628;BME280;43451;49.060;10.616;2023-10-13T00:58:44;96830.44;;;12.52;100.00
57628;BME280;43451;49.060;10.616;2023-10-13T01:01:12;96828.63;;;12.39;100.00
57628;BME280;43451;49.060;10.616;2023-10-13T01:03:48;96831.00;;;12.33;100.00
57628;BME280;43451;49.060;10.616;2023-10-13T01:06:18;96836.44;;;12.33;100.00
57628;BME280;43451;49.060;10.616;2023-10-13T01:08:48;96839.56;;;12.35;100.00
57628;BME280;43451;49.060;10.616;2023-10-13T01:11:19;96842.66;;;12.37;100.00
57628;BME280;43451;49.060;10.616;2023-10-13T01:13:48;96846.22;;;12.30;100.00
57628;BME280;43451;49.060;10.616;2023-10-13T01:16:17;96848.59;;;12.21;100.00
57628;BME280;43451;49.060;10.616;2023-10-13T01:18:43;96852.56;;;12.10;100.00
57628;BME280;43451;49.060;10.616;2023-10-13T01:21:18;96851.41;;;12.03;100.00
57628;BME280;43451;49.060;10.616;2023-10-13T01:23:46;96846.72;;;12.07;100.00
57628;BME280;43451;49.060;10.616;2023-10-13T01:26:13;96838.94;;;12.10;100.00
57628;BME280;43451;49.060;10.616;2023-10-13T01:28:46;96840.47;;;12.11;100.00
57628;BME280;43451;49.060;10.616;2023-10-13T01:31:12;96830.34;;;12.15;100.00
57628;BME280;43451;49.060;10.616;2023-10-13T01:33:42;96839.31;;;12.12;100.00
57628;BME280;43451;49.060;10.616;2023-10-13T01:36:08;96838.94;;;12.10;100.00
57628;BME280;43451;49.060;10.616;2023-10-13T01:38:34;96831.94;;;12.05;100.00
57628;BME280;43451;49.060;10.616;2023-10-13T01:41:05;96834.28;;;12.06;100.00
57628;BME280;43451;49.060;10.616;2023-10-13T01:43:31;96831.16;;;12.08;100.00
57628;BME280;43451;49.060;10.616;2023-10-13T01:45:56;96817.16;;;12.06;100.00
57628;BME280;43451;49.060;10.616;2023-10-13T01:48:22;96822.97;;;12.08;100.00
57628;BME280;43451;49.060;10.616;2023-10-13T01:50:47;96820.66;;;12.06;100.00
57628;BME280;43451;49.060;10.616;2023-10-13T01:53:14;96823.78;;;12.08;100.00
57628;BME280;43451;49.060;10.616;2023-10-13T01:55:43;96817.97;;;12.03;100.00
57628;BME280;43451;49.060;10.616;2023-10-13T01:58:10;96826.13;;;12.03;100.00
57628;BME280;43451;49.060;10.616;2023-10-13T02:00:43;96820.31;;;12.01;100.00
57628;BME280;43451;49.060;10.616;2023-10-13T02:03:10;96830.84;;;11.99;100.00
57628;BME280;43451;49.060;10.616;2023-10-13T02:05:40;96823.78;;;12.01;100.00
57628;BME280;43451;49.060;10.616;2023-10-13T02:08:09;96824.19;;;12.03;100.00
57628;BME280;43451;49.060;10.616;2023-10-13T02:10:36;96817.97;;;12.03;100.00
57628;BME280;43451;49.060;10.616;2023-10-13T02:13:13;96816.50;;;11.88;100.00
57628;BME280;43451;49.060;10.616;2023-10-13T02:15:41;96813.00;;;11.83;100.00
57628;BME280;43451;49.060;10.616;2023-10-13T02:18:09;96811.84;;;11.77;100.00
57628;BME280;43451;49.060;10.616;2023-10-13T02:20:35;96813.06;;;11.69;100.00
57628;BME280;43451;49.060;10.616;2023-10-13T02:23:08;96807.25;;;11.60;100.00
57628;BME280;43451;49.060;10.616;2023-10-13T02:25:36;96807.31;;;11.53;100.00
57628;BME280;43451;49.060;10.616;2023-10-13T02:28:09;96814.31;;;11.47;100.00
57628;BME280;43451;49.060;10.616;2023-10-13T02:30:46;96808.84;;;11.50;100.00
57628;BME280;43451;49.060;10.616;2023-10-13T02:33:15;96807.25;;;11.63;100.00
57628;BME280;43451;49.060;10.616;2023-10-13T02:35:47;96817.31;;;11.74;100.00
57628;BME280;43451;49.060;10.616;2023-10-13T02:38:20;96802.91;;;11.77;100.00
57628;BME280;43451;49.060;10.616;2023-10-13T02:41:09;96801.72;;;11.85;100.00
57628;BME280;43451;49.060;10.616;2023-10-13T02:43:36;96801.31;;;11.90;100.00
57628;BME280;43451;49.060;10.616;2023-10-13T02:46:02;96788.06;;;11.92;100.00
57628;BME280;43451;49.060;10.616;2023-10-13T02:48:29;96787.28;;;11.95;100.00
57628;BME280;43451;49.060;10.616;2023-10-13T02:51:08;96776.75;;;11.97;100.00
57628;BME280;43451;49.060;10.616;2023-10-13T02:53:44;96768.59;;;11.97;100.00
57628;BME280;43451;49.060;10.616;2023-10-13T02:56:15;96782.22;;;11.94;100.00
57628;BME280;43451;49.060;10.616;2023-10-13T02:58:52;96775.25;;;11.93;100.00
57628;BME280;43451;49.060;10.616;2023-10-13T03:01:35;96783.00;;;11.94;100.00
57628;BME280;43451;49.060;10.616;2023-10-13T03:04:02;96782.22;;;11.97;100.00
57628;BME280;43451;49.060;10.616;2023-10-13T03:06:34;96779.91;;;11.92;100.00
57628;BME280;43451;49.060;10.616;2023-10-13T03:09:10;96769.00;;;11.92;100.00
57628;BME280;43451;49.060;10.616;2023-10-13T03:11:45;96770.19;;;11.91;100.00
57628;BME280;43451;49.060;10.616;2023-10-13T03:14:18;96767.84;;;11.93;100.00
57628;BME280;43451;49.060;10.616;2023-10-13T03:17:01;96772.53;;;11.89;100.00
57628;BME280;43451;49.060;10.616;2023-10-13T03:19:32;96758.56;;;11.87;100.00
57628;BME280;43451;49.060;10.616;2023-10-13T03:22:02;96765.94;;;11.87;100.00
57628;BME280;43451;49.060;10.616;2023-10-13T03:24:38;96765.16;;;11.86;100.00
57628;BME280;43451;49.060;10.616;2023-10-13T03:27:10;96774.13;;;11.87;100.00
57628;BME280;43451;49.060;10.616;2023-10-13T03:29:38;96757.38;;;11.88;100.00
57628;BME280;43451;49.060;10.616;2023-10-13T03:32:09;96767.50;;;11.80;100.00
57628;BME280;43451;49.060;10.616;2023-10-13T03:34:45;96765.16;;;11.86;100.00
57628;BME280;43451;49.060;10.616;2023-10-13T03:37:31;96758.91;;;11.89;100.00
57628;BME280;43451;49.060;10.616;2023-10-13T03:40:07;96762.03;;;11.91;100.00
57628;BME280;43451;49.060;10.616;2023-10-13T03:42:57;96761.22;;;11.94;100.00
57628;BME280;43451;49.060;10.616;2023-10-13T03:45:37;96759.69;;;11.93;100.00
57628;BME280;43451;49.060;10.616;2023-10-13T03:48:08;96763.50;;;12.03;100.00
57628;BME280;43451;49.060;10.616;2023-10-13T03:50:55;96759.56;;;12.07;100.00
57628;BME280;43451;49.060;10.616;2023-10-13T03:53:29;96754.19;;;12.00;100.00
57628;BME280;43451;49.060;10.616;2023-10-13T03:56:02;96761.97;;;11.98;100.00
57628;BME280;43451;49.060;10.616;2023-10-13T03:58:38;96767.09;;;11.93;100.00
57628;BME280;43451;49.060;10.616;2023-10-13T04:01:06;96759.72;;;11.90;100.00
57628;BME280;43451;49.060;10.616;2023-10-13T04:03:35;96756.97;;;11.82;100.00
57628;BME280;43451;49.060;10.616;2023-10-13T04:06:04;96755.84;;;11.80;100.00
57628;BME280;43451;49.060;10.616;2023-10-13T04:08:34;96762.06;;;11.80;100.00
57628;BME280;43451;49.060;10.616;2023-10-13T04:11:08;96758.16;;;11.81;100.00
57628;BME280;43451;49.060;10.616;2023-10-13T04:13:52;96768.28;;;11.81;100.00
57628;BME280;43451;49.060;10.616;2023-10-13T04:16:36;96753.94;;;11.77;100.00
57628;BME280;43451;49.060;10.616;2023-10-13T04:19:03;96751.22;;;11.77;100.00
57628;BME280;43451;49.060;10.616;2023-10-13T04:21:28;96748.09;;;11.75;100.00
57628;BME280;43451;49.060;10.616;2023-10-13T04:24:21;96743.44;;;11.72;100.00
57628;BME280;43451;49.060;10.616;2023-10-13T04:27:24;96738.03;;;11.68;100.00
57628;BME280;43451;49.060;10.616;2023-10-13T04:30:09;96742.72;;;11.64;100.00
57628;BME280;43451;49.060;10.616;2023-10-13T04:32:49;96748.16;;;11.60;100.00
57628;BME280;43451;49.060;10.616;2023-10-13T04:35:31;96743.53;;;11.57;100.00
57628;BME280;43451;49.060;10.616;2023-10-13T04:38:01;96748.16;;;11.60;100.00
57628;BME280;43451;49.060;10.616;2023-10-13T04:40:27;96745.84;;;11.59;100.00
57628;BME280;43451;49.060;10.616;2023-10-13T04:43:00;96745.09;;;11.58;100.00
57628;BME280;43451;49.060;10.616;2023-10-13T04:45:31;96741.19;;;11.59;100.00
57628;BME280;43451;49.060;10.616;2023-10-13T04:47:57;96739.69;;;11.51;100.00
57628;BME280;43451;49.060;10.616;2023-10-13T04:50:38;96744.34;;;11.47;100.00
57628;BME280;43451;49.060;10.616;2023-10-13T04:53:13;96744.41;;;11.40;100.00
57628;BME280;43451;49.060;10.616;2023-10-13T04:55:55;96737.41;;;11.39;100.00
57628;BME280;43451;49.060;10.616;2023-10-13T04:58:30;96742.84;;;11.43;100.00
57628;BME280;43451;49.060;10.616;2023-10-13T05:01:05;96742.84;;;11.39;100.00
57628;BME280;43451;49.060;10.616;2023-10-13T05:04:02;96744.78;;;11.35;100.00
57628;BME280;43451;49.060;10.616;2023-10-13T05:06:47;96743.66;;;11.36;100.00
57628;BME280;43451;49.060;10.616;2023-10-13T05:09:31;96750.59;;;11.44;100.00
57628;BME280;43451;49.060;10.616;2023-10-13T05:12:15;96731.94;;;11.43;100.00
57628;BME280;43451;49.060;10.616;2023-10-13T05:14:59;96737.00;;;11.41;100.00
57628;BME280;43451;49.060;10.616;2023-10-13T05:17:43;96739.00;;;11.29;100.00
57628;BME280;43451;49.060;10.616;2023-10-13T05:20:27;96735.16;;;11.20;100.00
57628;BME280;43451;49.060;10.616;2023-10-13T05:23:11;96734.00;;;11.21;100.00
57628;BME280;43451;49.060;10.616;2023-10-13T05:25:55;96727.34;;;11.25;100.00
57628;BME280;43451;49.060;10.616;2023-10-13T05:28:39;96727.34;;;11.25;100.00
57628;BME280;43451;49.060;10.616;2023-10-13T05:31:23;96729.72;;;11.20;100.00
57628;BME280;43451;49.060;10.616;2023-10-13T05:34:07;96730.88;;;11.22;100.00
57628;BME280;43451;49.060;10.616;2023-10-13T05:36:50;96736.31;;;11.22;100.00
57628;BME280;43451;49.060;10.616;2023-10-13T05:39:35;96731.66;;;11.23;100.00
57628;BME280;43451;49.060;10.616;2023-10-13T05:42:19;96736.28;;;11.26;100.00
57628;BME280;43451;49.060;10.616;2023-10-13T05:45:03;96731.19;;;11.42;100.00
57628;BME280;43451;49.060;10.616;2023-10-13T05:47:34;96727.28;;;11.43;100.00
57628;BME280;43451;49.060;10.616;2023-10-13T05:50:07;96734.31;;;11.33;100.00
57628;BME280;43451;49.060;10.616;2023-10-13T05:52:50;96730.06;;;11.29;100.00
57628;BME280;43451;49.060;10.616;2023-10-13T05:55:25;96733.94;;;11.38;100.00
57628;BME280;43451;49.060;10.616;2023-10-13T05:58:10;96733.56;;;11.29;100.00
57628;BME280;43451;49.060;10.616;2023-10-13T06:00:55;96728.91;;;11.30;100.00
57628;BME280;43451;49.060;10.616;2023-10-13T06:03:39;96734.31;;;11.33;100.00
57628;BME280;43451;49.060;10.616;2023-10-13T06:06:23;96735.75;;;11.56;100.00
57628;BME280;43451;49.060;10.616;2023-10-13T06:09:07;96734.19;;;11.58;100.00
57628;BME280;43451;49.060;10.616;2023-10-13T06:11:50;96735.75;;;11.59;100.00
57628;BME280;43451;49.060;10.616;2023-10-13T06:14:34;96738.44;;;11.63;100.00
57628;BME280;43451;49.060;10.616;2023-10-13T06:17:18;96733.41;;;11.61;100.00
57628;BME280;43451;49.060;10.616;2023-10-13T06:20:02;96738.06;;;11.65;100.00
57628;BME280;43451;49.060;10.616;2023-10-13T06:22:50;96747.34;;;11.71;100.00
57628;BME280;43451;49.060;10.616;2023-10-13T06:25:34;96739.88;;;11.82;100.00
57628;BME280;43451;49.060;10.616;2023-10-13T06:28:18;96751.53;;;11.86;100.00
57628;BME280;43451;49.060;10.616;2023-10-13T06:31:04;96750.31;;;11.98;100.00
57628;BME280;43451;49.060;10.616;2023-10-13T06:33:32;96738.56;;;12.08;100.00
57628;BME280;43451;49.060;10.616;2023-10-13T06:36:03;96748.66;;;12.15;100.00
57628;BME280;43451;49.060;10.616;2023-10-13T06:38:29;96745.09;;;12.21;100.00
57628;BME280;43451;49.060;10.616;2023-10-13T06:41:05;96746.22;;;12.27;100.00
57628;BME280;43451;49.060;10.616;2023-10-13T06:43:33;96742.66;;;12.34;100.00
57628;BME280;43451;49.060;10.616;2023-10-13T06:46:04;96750.75;;;12.41;100.00
57628;BME280;43451;49.060;10.616;2023-10-13T06:48:30;96737.53;;;12.43;100.00
57628;BME280;43451;49.060;10.616;2023-10-13T06:51:05;96752.22;;;12.49;100.00
57628;BME280;43451;49.060;10.616;2023-10-13T06:53:46;96744.00;;;12.57;100.00
57628;BME280;43451;49.060;10.616;2023-10-13T06:56:16;96752.84;;;12.68;100.00
57628;BME280;43451;49.060;10.616;2023-10-13T06:58:48;96753.91;;;12.77;100.00
57628;BME280;43451;49.060;10.616;2023-10-13T07:01:14;96754.13;;;12.94;100.00
57628;BME280;43451;49.060;10.616;2023-10-13T07:03:48;96748.09;;;13.13;100.00
57628;BME280;43451;49.060;10.616;2023-10-13T07:06:21;96744.81;;;13.29;100.00
57628;BME280;43451;49.060;10.616;2023-10-13T07:08:47;96753.25;;;13.42;100.00
57628;BME280;43451;49.060;10.616;2023-10-13T07:11:27;96743.38;;;13.52;100.00
57628;BME280;43451;49.060;10.616;2023-10-13T07:14:00;96749.44;;;13.63;100.00
57628;BME280;43451;49.060;10.616;2023-10-13T07:16:35;96745.03;;;14.00;100.00
57628;BME280;43451;49.060;10.616;2023-10-13T07:19:01;96738.69;;;14.06;100.00
57628;BME280;43451;49.060;10.616;2023-10-13T07:21:33;96737.94;;;14.29;100.00
57628;BME280;43451;49.060;10.616;2023-10-13T07:23:58;96736.16;;;14.43;100.00
57628;BME280;43451;49.060;10.616;2023-10-13T07:26:37;96734.63;;;14.65;100.00
57628;BME280;43451;49.060;10.616;2023-10-13T07:29:11;96738.31;;;14.78;100.00
57628;BME280;43451;49.060;10.616;2023-10-13T07:31:37;96738.81;;;14.93;100.00
57628;BME280;43451;49.060;10.616;2023-10-13T07:34:07;96746.69;;;15.11;100.00
57628;BME280;43451;49.060;10.616;2023-10-13T07:36:51;96731.88;;;15.28;100.00
57628;BME280;43451;49.060;10.616;2023-10-13T07:39:17;96732.50;;;15.36;100.00
57628;BME280;43451;49.060;10.616;2023-10-13T07:41:53;96738.03;;;15.52;100.00
57628;BME280;43451;49.060;10.616;2023-10-13T07:44:29;96726.72;;;15.70;100.00
57628;BME280;43451;49.060;10.616;2023-10-13T07:46:59;96734.28;;;15.83;100.00
57628;BME280;43451;49.060;10.616;2023-10-13T07:49:28;96733.47;;;16.02;100.00
57628;BME280;43451;49.060;10.616;2023-10-13T07:52:01;96723.00;;;16.13;100.00
57628;BME280;43451;49.060;10.616;2023-10-13T07:54:43;96727.53;;;16.20;100.00
57628;BME280;43451;49.060;10.616;2023-10-13T07:57:09;96733.78;;;16.20;100.00
57628;BME280;43451;49.060;10.616;2023-10-13T07:59:34;96722.31;;;16.09;100.00
57628;BME280;43451;49.060;10.616;2023-10-13T08:02:12;96721.56;;;16.09;100.00
57628;BME280;43451;49.060;10.616;2023-10-13T08:04:39;96729.50;;;16.19;100.00
57628;BME280;43451;49.060;10.616;2023-10-13T08:07:04;96728.22;;;16.08;100.00
57628;BME280;43451;49.060;10.616;2023-10-13T08:09:41;96720.63;;;16.15;100.00
57628;BME280;43451;49.060;10.616;2023-10-13T08:12:08;96726.78;;;16.19;100.00
57628;BME280;43451;49.060;10.616;2023-10-13T08:14:37;96719.22;;;16.23;100.00
57628;BME280;43451;49.060;10.616;2023-10-13T08:17:07;96718.91;;;16.21;100.00
57628;BME280;43451;49.060;10.616;2023-10-13T08:19:36;96720.16;;;16.33;100.00
57628;BME280;43451;49.060;10.616;2023-10-13T08:22:11;96724.63;;;16.43;100.00
57628;BME280;43451;49.060;10.616;2023-10-13T08:24:43;96713.38;;;16.54;100.00
57628;BME280;43451;49.060;10.616;2023-10-13T08:27:09;96722.53;;;16.64;100.00
57628;BME280;43451;49.060;10.616;2023-10-13T08:29:44;96720.47;;;16.84;100.00
57628;BME280;43451;49.060;10.616;2023-10-13T08:32:38;96719.94;;;16.89;100.00
57628;BME280;43451;49.060;10.616;2023-10-13T08:35:20;96706.41;;;17.11;100.00
57628;BME280;43451;49.060;10.616;2023-10-13T08:37:55;96710.16;;;17.17;100.00
57628;BME280;43451;49.060;10.616;2023-10-13T08:40:26;96710.63;;;17.29;100.00
57628;BME280;43451;49.060;10.616;2023-10-13T08:43:11;96698.66;;;17.35;100.00
57628;BME280;43451;49.060;10.616;2023-10-13T08:45:39;96699.88;;;17.47;100.00
57628;BME280;43451;49.060;10.616;2023-10-13T08:48:06;96689.81;;;17.70;100.00
57628;BME280;43451;49.060;10.616;2023-10-13T08:50:36;96686.63;;;17.84;98.12
57628;BME280;43451;49.060;10.616;2023-10-13T08:53:25;96690.28;;;17.81;100.00
57628;BME280;43451;49.060;10.616;2023-10-13T08:55:55;96689.00;;;18.20;91.25
57628;BME280;43451;49.060;10.616;2023-10-13T08:58:47;96682.03;;;18.41;88.06
57628;BME280;43451;49.060;10.616;2023-10-13T09:01:30;96684.75;;;18.54;87.23
57628;BME280;43451;49.060;10.616;2023-10-13T09:04:24;96681.84;;;18.70;86.49
57628;BME280;43451;49.060;10.616;2023-10-13T09:07:03;96688.28;;;18.89;81.89
57628;BME280;43451;49.060;10.616;2023-10-13T09:09:54;96672.03;;;19.04;77.44
57628;BME280;43451;49.060;10.616;2023-10-13T09:12:29;96675.13;;;19.06;81.08
57628;BME280;43451;49.060;10.616;2023-10-13T09:14:58;96675.47;;;19.17;77.60
57628;BME280;43451;49.060;10.616;2023-10-13T09:17:29;96673.16;;;19.38;75.66
57628;BME280;43451;49.060;10.616;2023-10-13T09:19:59;96671.47;;;19.40;78.50
57628;BME280;43451;49.060;10.616;2023-10-13T09:22:25;96669.28;;;19.57;78.85
57628;BME280;43451;49.060;10.616;2023-10-13T09:24:58;96662.16;;;19.69;78.02
57628;BME280;43451;49.060;10.616;2023-10-13T09:27:33;96669.09;;;19.83;76.35
57628;BME280;43451;49.060;10.616;2023-10-13T09:30:00;96665.47;;;19.95;75.01
57628;BME280;43451;49.060;10.616;2023-10-13T09:32:33;96671.19;;;20.19;70.70
57628;BME280;43451;49.060;10.616;2023-10-13T09:35:11;96664.94;;;20.37;68.60
57628;BME280;43451;49.060;10.616;2023-10-13T09:37:41;96672.31;;;20.49;69.94
57628;BME280;43451;49.060;10.616;2023-10-13T09:40:09;96668.53;;;20.56;69.22
57628;BME280;43451;49.060;10.616;2023-10-13T09:42:54;96666.69;;;20.62;67.04
57628;BME280;43451;49.060;10.616;2023-10-13T09:45:30;96667.16;;;20.70;64.06
57628;BME280;43451;49.060;10.616;2023-10-13T09:48:10;96659.63;;;20.89;65.32
57628;BME280;43451;49.060;10.616;2023-10-13T09:50:44;96663.63;;;20.97;63.28
57628;BME280;43451;49.060;10.616;2023-10-13T09:53:11;96655.59;;;21.08;64.05
57628;BME280;43451;49.060;10.616;2023-10-13T09:55:48;96650.06;;;21.17;61.60
57628;BME280;43451;49.060;10.616;2023-10-13T09:58:16;96652.97;;;21.23;63.35
57628;BME280;43451;49.060;10.616;2023-10-13T10:00:55;96658.16;;;21.30;59.91
57628;BME280;43451;49.060;10.616;2023-10-13T10:03:23;96651.44;;;21.22;61.71
57628;BME280;43451;49.060;10.616;2023-10-13T10:05:59;96647.13;;;21.30;62.01
57628;BME280;43451;49.060;10.616;2023-10-13T10:08:34;96649.41;;;21.41;59.62
57628;BME280;43451;49.060;10.616;2023-10-13T10:17:06;96632.28;;;21.70;57.63
57628;BME280;43451;49.060;10.616;2023-10-13T10:19:53;96639.13;;;21.84;59.25
57628;BME280;43451;49.060;10.616;2023-10-13T10:22:32;96632.66;;;21.87;56.50
57628;BME280;43451;49.060;10.616;2023-10-13T10:25:03;96628.63;;;21.88;58.58
57628;BME280;43451;49.060;10.616;2023-10-13T10:27:32;96620.72;;;22.05;57.14
57628;BME280;43451;49.060;10.616;2023-10-13T10:29:59;96624.19;;;22.14;59.67
57628;BME280;43451;49.060;10.616;2023-10-13T10:32:54;96620.34;;;22.21;56.32
57628;BME280;43451;49.060;10.616;2023-10-13T10:35:24;96605.94;;;22.32;56.15
57628;BME280;43451;49.060;10.616;2023-10-13T10:37:56;96609.66;;;22.29;56.02
57628;BME280;43451;49.060;10.616;2023-10-13T10:40:28;96599.09;;;22.42;57.60
57628;BME280;43451;49.060;10.616;2023-10-13T10:43:13;96598.16;;;22.45;56.12
57628;BME280;43451;49.060;10.616;2023-10-13T10:45:47;96597.44;;;22.59;52.92
57628;BME280;43451;49.060;10.616;2023-10-13T10:48:14;96593.34;;;22.69;54.95
57628;BME280;43451;49.060;10.616;2023-10-13T10:51:03;96595.84;;;22.82;52.11
57628;BME280;43451;49.060;10.616;2023-10-13T10:53:39;96591.88;;;22.98;53.51
57628;BME280;43451;49.060;10.616;2023-10-13T10:56:12;96588.25;;;23.07;48.73
57628;BME280;43451;49.060;10.616;2023-10-13T10:59:10;96578.13;;;23.19;48.74
57628;BME280;43451;49.060;10.616;2023-10-13T11:01:44;96568.63;;;23.25;49.07
57628;BME280;43451;49.060;10.616;2023-10-13T11:04:16;96573.59;;;23.36;49.06
57628;BME280;43451;49.060;10.616;2023-10-13T11:06:52;96557.81;;;23.42;49.00
57628;BME280;43451;49.060;10.616;2023-10-13T11:12:08;96545.41;;;23.73;48.21
57628;BME280;43451;49.060;10.616;2023-10-13T11:15:03;96550.25;;;23.78;49.64
57628;BME280;43451;49.060;10.616;2023-10-13T11:17:34;96544.31;;;23.85;47.74
57628;BME280;43451;49.060;10.616;2023-10-13T11:20:17;96536.66;;;24.00;46.57
57628;BME280;43451;49.060;10.616;2023-10-13T11:22:51;96535.56;;;24.13;46.06
57628;BME280;43451;49.060;10.616;2023-10-13T11:25:25;96536.47;;;24.04;45.54
57628;BME280;43451;49.060;10.616;2023-10-13T11:28:14;96530.22;;;24.09;44.92
57628;BME280;43451;49.060;10.616;2023-10-13T11:30:46;96535.56;;;24.13;45.19
57628;BME280;43451;49.060;10.616;2023-10-13T11:33:16;96524.88;;;24.05;44.89
57628;BME280;43451;49.060;10.616;2023-10-13T11:35:54;96522.78;;;24.21;44.88
57628;BME280;43451;49.060;10.616;2023-10-13T11:40:59;96519.72;;;24.19;44.34
57628;BME280;43451;49.060;10.616;2023-10-13T11:43:38;96524.16;;;24.31;45.47
57628;BME280;43451;49.060;10.616;2023-10-13T11:46:26;96517.41;;;24.38;43.80
57628;BME280;43451;49.060;10.616;2023-10-13T11:49:04;96512.72;;;24.44;44.05
57628;BME280;43451;49.060;10.616;2023-10-13T11:51:42;96503.47;;;24.52;42.94
57628;BME280;43451;49.060;10.616;2023-10-13T11:54:18;96494.09;;;24.50;43.70
57628;BME280;43451;49.060;10.616;2023-10-13T11:56:44;96489.81;;;24.49;44.16
57628;BME280;43451;49.060;10.616;2023-10-13T11:59:10;96489.41;;;24.62;43.40
57628;BME280;43451;49.060;10.616;2023-10-13T12:01:50;96490.47;;;24.70;42.07
57628;BME280;43451;49.060;10.616;2023-10-13T12:04:35;96487.31;;;24.83;42.34
57628;BME280;43451;49.060;10.616;2023-10-13T12:07:09;96478.75;;;24.86;43.31
57628;BME280;43451;49.060;10.616;2023-10-13T12:09:41;96476.28;;;24.94;42.43
57628;BME280;43451;49.060;10.616;2023-10-13T12:12:17;96470.78;;;24.99;42.25
57628;BME280;43451;49.060;10.616;2023-10-13T12:14:42;96468.53;;;25.04;42.90
57628;BME280;43451;49.060;10.616;2023-10-13T12:17:18;96463.00;;;25.09;41.70
57628;BME280;43451;49.060;10.616;2023-10-13T12:19:53;96460.09;;;25.24;41.66
57628;BME280;43451;49.060;10.616;2023-10-13T12:22:20;96466.72;;;25.32;41.91
57628;BME280;43451;49.060;10.616;2023-10-13T12:25:01;96452.81;;;25.32;40.61
57628;BME280;43451;49.060;10.616;2023-10-13T12:27:30;96443.47;;;25.35;40.82
57628;BME280;43451;49.060;10.616;2023-10-13T12:30:11;96443.88;;;25.17;42.29
57628;BME280;43451;49.060;10.616;2023-10-13T12:32:39;96446.56;;;25.11;41.55
57628;BME280;43451;49.060;10.616;2023-10-13T12:35:10;96439.22;;;25.02;40.80
57628;BME280;43451;49.060;10.616;2023-10-13T12:37:35;96444.09;;;24.82;42.69
57628;BME280;43451;49.060;10.616;2023-10-13T12:40:21;96441.78;;;24.74;42.36
57628;BME280;43451;49.060;10.616;2023-10-13T12:43:05;96447.00;;;24.67;42.10
57628;BME280;43451;49.060;10.616;2023-10-13T12:45:50;96440.81;;;24.51;42.48
57628;BME280;43451;49.060;10.616;2023-10-13T12:48:36;96436.22;;;24.43;42.81
57628;BME280;43451;49.060;10.616;2023-10-13T12:51:20;96444.31;;;24.46;43.65
57628;BME280;43451;49.060;10.616;2023-10-13T12:53:51;96440.69;;;24.40;43.59
57628;BME280;43451;49.060;10.616;2023-10-13T12:56:18;96439.38;;;24.36;44.00
57628;BME280;43451;49.060;10.616;2023-10-13T12:58:54;96445.31;;;24.43;43.50
57628;BME280;43451;49.060;10.616;2023-10-13T13:01:22;96445.13;;;24.52;43.21
57628;BME280;43451;49.060;10.616;2023-10-13T13:03:48;96435.81;;;24.55;43.95
57628;BME280;43451;49.060;10.616;2023-10-13T13:06:19;96438.19;;;24.68;42.52
57628;BME280;43451;49.060;10.616;2023-10-13T13:09:05;96438.66;;;24.61;43.85
57628;BME280;43451;49.060;10.616;2023-10-13T13:11:35;96430.69;;;24.48;42.69
57628;BME280;43451;49.060;10.616;2023-10-13T13:14:06;96423.72;;;24.59;43.58
57628;BME280;43451;49.060;10.616;2023-10-13T13:16:33;96424.06;;;24.72;42.97
57628;BME280;43451;49.060;10.616;2023-10-13T13:18:59;96412.25;;;24.77;43.31
57628;BME280;43451;49.060;10.616;2023-10-13T13:21:29;96411.25;;;24.80;42.35
57628;BME280;43451;49.060;10.616;2023-10-13T13:23:54;96409.81;;;24.90;41.04
57628;BME280;43451;49.060;10.616;2023-10-13T13:26:23;96407.84;;;25.02;42.43
57628;BME280;43451;49.060;10.616;2023-10-13T13:28:49;96397.75;;;25.05;41.79
57628;BME280;43451;49.060;10.616;2023-10-13T13:31:18;96396.63;;;25.22;42.70
57628;BME280;43451;49.060;10.616;2023-10-13T13:33:43;96389.31;;;25.31;41.35